Time;durP1;ratioP1;P1;durP2;ratioP2;P2;SDS_P1;SDS_P2;PMS_P1;PMS_P2;Temp;Humidity;BMP_temperature;BMP_pressure;BME280_temperature;BME280_humidity;BME280_pressure;Samples;Min_cycle;Max_cycle;Signal;HPM_P1;HPM_P2
2023/12/21 00:03:04;;;;;;;21.00;10.07;;;;;;;;;;10289056;28;20479;-79
2023/12/21 00:08:05;;;;;;;17.83;9.77;;;;;;;;;;10286155;28;20049;-79
2023/12/21 00:13:06;;;;;;;35.77;19.17;;;;;;;;;;10291096;28;20042;-79
2023/12/21 00:18:08;;;;;;;25.87;13.97;;;;;;;;;;10284429;28;20389;-79
2023/12/21 00:23:08;;;;;;;28.63;14.33;;;;;;;;;;10286377;28;20085;-81
2023/12/21 00:28:10;;;;;;;26.97;14.63;;;;;;;;;;10287796;28;20360;-79
2023/12/21 00:33:11;;;;;;;26.40;14.03;;;;;;;;;;10285048;28;20125;-79
2023/12/21 00:38:12;;;;;;;25.17;13.93;;;;;;;;;;10279674;28;20039;-82
2023/12/21 00:43:12;;;;;;;25.47;12.17;;;;;;;;;;10281039;28;20035;-79
2023/12/21 00:48:14;;;;;;;22.10;11.60;;;;;;;;;;10287678;28;20054;-80
2023/12/21 00:53:16;;;;;;;22.77;10.33;;;;;;;;;;10275863;28;20047;-79
2023/12/21 00:58:17;;;;;;;20.33;10.60;;;;;;;;;;10294676;28;20517;-80
2023/12/21 01:03:18;;;;;;;18.57;9.03;;;;;;;;;;10286145;28;20166;-79
2023/12/21 01:08:19;;;;;;;16.40;8.93;;;;;;;;;;10255801;28;20043;-81
2023/12/21 01:13:20;;;;;;;15.90;8.93;;;;;;;;;;10285664;28;20037;-80
2023/12/21 01:18:21;;;;;;;17.20;8.40;;;;;;;;;;10287326;28;20462;-79
2023/12/21 01:23:22;;;;;;;12.97;8.07;;;;;;;;;;10271678;28;20034;-79
2023/12/21 01:28:23;;;;;;;12.97;7.40;;;;;;;;;;10285278;28;20402;-79
2023/12/21 01:33:24;;;;;;;14.93;7.57;;;;;;;;;;10284175;28;20046;-79
2023/12/21 01:38:25;;;;;;;11.63;6.37;;;;;;;;;;10284407;28;20047;-79
2023/12/21 01:43:26;;;;;;;12.17;6.00;;;;;;;;;;10268399;28;20057;-79
2023/12/21 01:48:31;;;;;;;13.00;7.13;;;;;;;;;;10283616;28;20462;-84
2023/12/21 01:53:33;;;;;;;11.97;6.50;;;;;;;;;;10283549;28;20034;-79
2023/12/21 01:58:34;;;;;;;11.93;6.73;;;;;;;;;;10296223;28;20045;-79
2023/12/21 02:03:35;;;;;;;9.93;5.83;;;;;;;;;;10283202;28;20497;-79
2023/12/21 02:08:36;;;;;;;14.47;6.17;;;;;;;;;;10284386;28;20117;-83
2023/12/21 02:13:37;;;;;;;15.67;7.10;;;;;;;;;;10294359;28;20113;-79
2023/12/21 02:18:38;;;;;;;11.87;6.70;;;;;;;;;;10295776;28;20051;-82
2023/12/21 02:23:40;;;;;;;13.67;6.47;;;;;;;;;;10283453;28;20050;-80
2023/12/21 02:28:41;;;;;;;11.33;6.03;;;;;;;;;;10283331;28;20035;-79
2023/12/21 02:33:42;;;;;;;10.80;6.37;;;;;;;;;;10296447;28;20042;-79
2023/12/21 02:38:43;;;;;;;13.43;6.57;;;;;;;;;;10278321;28;20069;-80
2023/12/21 02:43:44;;;;;;;10.83;6.13;;;;;;;;;;10288516;28;20066;-79
2023/12/21 02:48:54;;;;;;;12.37;5.50;;;;;;;;;;10298981;28;20149;-79
2023/12/21 02:53:55;;;;;;;9.37;5.13;;;;;;;;;;10270910;28;20369;-82
2023/12/21 02:58:56;;;;;;;11.13;5.70;;;;;;;;;;10296483;28;20042;-79
2023/12/21 03:03:59;;;;;;;8.83;5.20;;;;;;;;;;10257636;28;20035;-82
2023/12/21 03:09:00;;;;;;;8.43;5.00;;;;;;;;;;10289835;28;20152;-83
2023/12/21 03:14:02;;;;;;;9.40;5.03;;;;;;;;;;10290257;28;20081;-83
2023/12/21 03:19:03;;;;;;;8.03;3.97;;;;;;;;;;10288017;28;20093;-79
2023/12/21 03:24:04;;;;;;;8.10;3.93;;;;;;;;;;10288570;28;20387;-79
2023/12/21 03:29:05;;;;;;;7.13;3.93;;;;;;;;;;10296485;28;20031;-79
2023/12/21 03:34:06;;;;;;;5.87;3.53;;;;;;;;;;10289071;28;20042;-82
2023/12/21 03:39:07;;;;;;;6.27;3.17;;;;;;;;;;10288885;28;20035;-79
2023/12/21 03:44:08;;;;;;;5.90;3.30;;;;;;;;;;10300343;28;20034;-81
2023/12/21 03:49:09;;;;;;;5.93;3.43;;;;;;;;;;10286576;28;20900;-80
2023/12/21 03:54:10;;;;;;;4.50;3.00;;;;;;;;;;10287796;28;20058;-80
2023/12/21 03:59:12;;;;;;;5.03;3.13;;;;;;;;;;10300627;28;20058;-80
2023/12/21 04:04:13;;;;;;;6.63;3.80;;;;;;;;;;10286292;28;20027;-79
2023/12/21 04:09:14;;;;;;;4.93;3.63;;;;;;;;;;10286530;28;20026;-79
2023/12/21 04:14:15;;;;;;;7.67;3.70;;;;;;;;;;10287449;28;20085;-79
2023/12/21 04:19:16;;;;;;;6.80;3.30;;;;;;;;;;10287255;28;20047;-78
2023/12/21 04:24:17;;;;;;;6.70;3.87;;;;;;;;;;10286417;28;20035;-79
2023/12/21 04:29:24;;;;;;;8.33;3.50;;;;;;;;;;10287533;28;20429;-79
2023/12/21 04:34:25;;;;;;;5.47;3.30;;;;;;;;;;10288690;28;20729;-79
2023/12/21 04:39:26;;;;;;;8.57;4.23;;;;;;;;;;10286388;28;20046;-82
2023/12/21 04:44:27;;;;;;;12.00;4.80;;;;;;;;;;10303740;28;20041;-80
2023/12/21 04:49:29;;;;;;;8.50;4.23;;;;;;;;;;10292220;28;20387;-80
2023/12/21 04:54:36;;;;;;;8.83;4.67;;;;;;;;;;10286406;28;20127;-79
2023/12/21 04:59:40;;;;;;;6.47;3.40;;;;;;;;;;10272589;28;20133;-79
2023/12/21 05:04:41;;;;;;;6.87;4.00;;;;;;;;;;10289630;28;20042;-81
2023/12/21 05:09:42;;;;;;;7.20;3.80;;;;;;;;;;10289701;28;20067;-77
2023/12/21 05:14:43;;;;;;;7.70;3.43;;;;;;;;;;10290324;28;20025;-79
2023/12/21 05:19:46;;;;;;;5.23;2.83;;;;;;;;;;10288505;28;20403;-79
2023/12/21 05:24:47;;;;;;;7.03;3.47;;;;;;;;;;10285347;28;20039;-79
2023/12/21 05:29:48;;;;;;;5.93;3.50;;;;;;;;;;10283665;28;20109;-78
2023/12/21 05:34:49;;;;;;;5.87;3.50;;;;;;;;;;10285124;28;20027;-77
2023/12/21 05:39:50;;;;;;;4.97;2.53;;;;;;;;;;10284645;28;20484;-78
2023/12/21 05:44:52;;;;;;;7.93;3.50;;;;;;;;;;10284198;28;20614;-78
2023/12/21 05:49:53;;;;;;;8.87;3.20;;;;;;;;;;10284134;28;20090;-79
2023/12/21 05:54:54;;;;;;;7.87;3.57;;;;;;;;;;10284729;28;20038;-81
2023/12/21 05:59:55;;;;;;;8.53;4.10;;;;;;;;;;10284402;28;20042;-81
2023/12/21 06:04:56;;;;;;;6.83;3.43;;;;;;;;;;10284905;28;20062;-78
2023/12/21 06:09:57;;;;;;;5.50;3.17;;;;;;;;;;10285756;28;20121;-79
2023/12/21 06:14:58;;;;;;;5.73;3.47;;;;;;;;;;10291882;28;20027;-78
2023/12/21 06:19:59;;;;;;;7.03;3.30;;;;;;;;;;10291916;28;20046;-78
2023/12/21 06:25:00;;;;;;;5.23;2.80;;;;;;;;;;10291208;28;20039;-79
2023/12/21 06:30:02;;;;;;;7.87;3.70;;;;;;;;;;10291263;28;20027;-79
2023/12/21 06:35:03;;;;;;;7.93;4.53;;;;;;;;;;10291255;28;20033;-79
2023/12/21 06:40:04;;;;;;;6.83;3.40;;;;;;;;;;10291419;28;20034;-79
2023/12/21 06:45:05;;;;;;;10.03;4.97;;;;;;;;;;10290703;28;20528;-81
2023/12/21 06:50:07;;;;;;;5.80;3.17;;;;;;;;;;10289856;28;20062;-82
2023/12/21 06:55:08;;;;;;;8.33;3.53;;;;;;;;;;10289855;28;20800;-80
2023/12/21 07:00:12;;;;;;;6.93;3.60;;;;;;;;;;10290515;28;20065;-79
2023/12/21 07:05:13;;;;;;;6.93;3.93;;;;;;;;;;10289509;28;20039;-79
2023/12/21 07:10:14;;;;;;;17.93;9.50;;;;;;;;;;10289934;28;20027;-80
2023/12/21 07:15:16;;;;;;;10.50;5.03;;;;;;;;;;10289786;28;20027;-83
2023/12/21 07:20:21;;;;;;;10.47;5.00;;;;;;;;;;10288979;28;20042;-82
2023/12/21 07:25:22;;;;;;;12.97;6.57;;;;;;;;;;10288622;28;20616;-82
2023/12/21 07:30:23;;;;;;;12.57;6.67;;;;;;;;;;10271416;28;20035;-79
2023/12/21 07:35:24;;;;;;;12.60;6.13;;;;;;;;;;10289579;28;20035;-79
2023/12/21 07:40:25;;;;;;;14.37;6.67;;;;;;;;;;10288353;28;20121;-82
2023/12/21 07:45:26;;;;;;;20.33;9.53;;;;;;;;;;10287819;28;20521;-79
2023/12/21 07:50:29;;;;;;;15.70;8.07;;;;;;;;;;10287656;28;20065;-79
2023/12/21 07:55:31;;;;;;;14.23;7.33;;;;;;;;;;10287668;28;20035;-79
2023/12/21 08:00:32;;;;;;;12.97;7.83;;;;;;;;;;10287998;28;20035;-79
2023/12/21 08:05:33;;;;;;;13.97;6.47;;;;;;;;;;10288232;28;20411;-80
2023/12/21 08:10:34;;;;;;;11.40;6.33;;;;;;;;;;10287790;28;20039;-80
2023/12/21 08:15:41;;;;;;;8.73;5.83;;;;;;;;;;10287207;28;20034;-80
2023/12/21 08:20:42;;;;;;;7.40;5.17;;;;;;;;;;10282048;28;20399;-80
2023/12/21 08:25:44;;;;;;;9.50;5.17;;;;;;;;;;10287210;28;20019;-79
2023/12/21 08:30:45;;;;;;;12.27;6.63;;;;;;;;;;10286770;28;20521;-79
2023/12/21 08:35:46;;;;;;;10.90;6.03;;;;;;;;;;10285698;28;20045;-82
2023/12/21 08:40:47;;;;;;;14.57;5.57;;;;;;;;;;10286632;28;20062;-78
2023/12/21 08:45:48;;;;;;;15.00;8.50;;;;;;;;;;10285581;28;20037;-81
2023/12/21 08:50:49;;;;;;;14.07;6.93;;;;;;;;;;10285645;28;20056;-78
2023/12/21 08:55:50;;;;;;;13.67;8.47;;;;;;;;;;10267905;28;20033;-79
2023/12/21 09:00:51;;;;;;;16.40;9.93;;;;;;;;;;10285606;28;20027;-82
2023/12/21 09:05:53;;;;;;;14.70;8.63;;;;;;;;;;10285196;28;20395;-79
2023/12/21 09:10:54;;;;;;;12.87;5.90;;;;;;;;;;10285267;28;20117;-83
2023/12/21 09:15:55;;;;;;;10.33;5.30;;;;;;;;;;10285121;28;20109;-80
2023/12/21 09:20:56;;;;;;;10.70;5.40;;;;;;;;;;10284654;28;20050;-80
2023/12/21 09:25:57;;;;;;;10.57;5.17;;;;;;;;;;10284762;28;20089;-78
2023/12/21 09:30:58;;;;;;;7.27;3.93;;;;;;;;;;10272231;28;20114;-82
2023/12/21 09:35:59;;;;;;;8.37;4.10;;;;;;;;;;10284696;28;20437;-79
2023/12/21 09:41:00;;;;;;;6.80;3.57;;;;;;;;;;10272027;28;20173;-79
2023/12/21 09:46:01;;;;;;;6.93;3.37;;;;;;;;;;10287662;28;20034;-79
2023/12/21 09:51:04;;;;;;;6.90;3.33;;;;;;;;;;10292388;28;20494;-79
2023/12/21 09:56:06;;;;;;;13.50;4.13;;;;;;;;;;10292087;28;20034;-79
2023/12/21 10:01:07;;;;;;;5.43;3.40;;;;;;;;;;10292157;28;20026;-81
2023/12/21 10:06:09;;;;;;;8.03;3.83;;;;;;;;;;10292409;28;20407;-79
2023/12/21 10:11:10;;;;;;;11.57;5.30;;;;;;;;;;10292470;28;20037;-79
2023/12/21 10:16:12;;;;;;;7.77;3.00;;;;;;;;;;10291648;28;20482;-82
2023/12/21 10:21:13;;;;;;;6.67;3.07;;;;;;;;;;10291938;28;20082;-79
2023/12/21 10:26:14;;;;;;;7.27;4.00;;;;;;;;;;10290971;28;20027;-79
2023/12/21 10:31:16;;;;;;;9.17;4.27;;;;;;;;;;10290887;28;20689;-82
2023/12/21 10:36:24;;;;;;;4.97;3.60;;;;;;;;;;10290532;28;20038;-79
2023/12/21 10:41:25;;;;;;;9.93;4.00;;;;;;;;;;10291061;28;20038;-79
2023/12/21 10:46:32;;;;;;;7.43;3.17;;;;;;;;;;10290615;28;20057;-79
2023/12/21 10:51:43;;;;;;;6.30;3.07;;;;;;;;;;10290089;28;20487;-78
2023/12/21 10:56:44;;;;;;;6.60;3.27;;;;;;;;;;10289381;28;20391;-82
2023/12/21 11:01:46;;;;;;;8.30;4.30;;;;;;;;;;10289820;28;20038;-83
2023/12/21 11:06:48;;;;;;;6.13;3.00;;;;;;;;;;10289677;28;20038;-80
2023/12/21 11:11:49;;;;;;;7.13;3.83;;;;;;;;;;10289943;28;20082;-80
2023/12/21 11:16:57;;;;;;;8.13;3.63;;;;;;;;;;10289292;28;20121;-82
2023/12/21 11:21:58;;;;;;;5.83;3.50;;;;;;;;;;10288831;28;20130;-78
2023/12/21 11:27:01;;;;;;;5.33;3.03;;;;;;;;;;10289348;28;20027;-81
2023/12/21 11:32:05;;;;;;;4.67;2.57;;;;;;;;;;10288993;28;20034;-79
2023/12/21 11:37:17;;;;;;;7.40;3.13;;;;;;;;;;10288958;28;20050;-79
2023/12/21 11:42:20;;;;;;;5.73;2.80;;;;;;;;;;10288476;28;20046;-79
2023/12/21 11:47:21;;;;;;;6.63;3.30;;;;;;;;;;10277608;28;20368;-82
2023/12/21 11:52:25;;;;;;;4.47;2.97;;;;;;;;;;10283484;28;20139;-78
2023/12/21 11:57:30;;;;;;;5.30;2.70;;;;;;;;;;10287426;28;20054;-78
2023/12/21 12:02:33;;;;;;;4.93;2.63;;;;;;;;;;10255148;28;20047;-80
2023/12/21 12:07:35;;;;;;;5.93;2.90;;;;;;;;;;10278306;28;20045;-81
2023/12/21 12:12:36;;;;;;;5.70;2.93;;;;;;;;;;10287636;28;20384;-78
2023/12/21 12:17:41;;;;;;;6.33;3.43;;;;;;;;;;10286850;28;20034;-78
2023/12/21 12:22:42;;;;;;;9.10;4.63;;;;;;;;;;10280661;28;20069;-78
2023/12/21 12:27:43;;;;;;;7.37;3.97;;;;;;;;;;10281026;28;20031;-80
2023/12/21 12:32:45;;;;;;;8.77;4.33;;;;;;;;;;10282447;28;20584;-81
2023/12/21 12:37:49;;;;;;;6.23;3.80;;;;;;;;;;10275148;28;20105;-80
2023/12/21 12:42:51;;;;;;;7.67;4.20;;;;;;;;;;10281218;28;20034;-79
2023/12/21 12:47:52;;;;;;;7.67;3.90;;;;;;;;;;10281546;28;20501;-78
2023/12/21 12:52:53;;;;;;;6.60;3.87;;;;;;;;;;10284499;28;20117;-79
2023/12/21 12:57:55;;;;;;;8.20;4.17;;;;;;;;;;10281347;28;20117;-79
2023/12/21 13:02:56;;;;;;;6.80;3.80;;;;;;;;;;10268931;28;20118;-80
2023/12/21 13:07:57;;;;;;;9.90;5.13;;;;;;;;;;10284297;28;20041;-80
2023/12/21 13:12:58;;;;;;;32.47;16.93;;;;;;;;;;10283551;28;20034;-81
2023/12/21 13:17:59;;;;;;;9.60;4.70;;;;;;;;;;10277569;28;20034;-79
2023/12/21 13:23:02;;;;;;;11.10;5.40;;;;;;;;;;10269305;28;20129;-79
2023/12/21 13:28:03;;;;;;;7.27;3.90;;;;;;;;;;10258139;28;20038;-79
2023/12/21 13:33:04;;;;;;;9.53;4.80;;;;;;;;;;10277337;28;20027;-79
2023/12/21 13:38:05;;;;;;;6.67;3.60;;;;;;;;;;10284766;28;20038;-80
2023/12/21 13:43:06;;;;;;;10.20;5.77;;;;;;;;;;10278377;28;20026;-80
2023/12/21 13:48:07;;;;;;;10.93;5.60;;;;;;;;;;10284517;28;20471;-82
2023/12/21 13:53:08;;;;;;;8.80;4.23;;;;;;;;;;10285091;28;20081;-79
2023/12/21 13:58:09;;;;;;;6.80;3.70;;;;;;;;;;10284187;28;20070;-80
2023/12/21 14:03:11;;;;;;;7.80;4.17;;;;;;;;;;10288400;28;20471;-80
2023/12/21 14:08:19;;;;;;;9.53;4.47;;;;;;;;;;10282800;28;20026;-80
2023/12/21 14:13:20;;;;;;;9.20;4.60;;;;;;;;;;10280763;28;20090;-82
2023/12/21 14:18:21;;;;;;;11.80;5.40;;;;;;;;;;10270860;28;20053;-82
2023/12/21 14:23:22;;;;;;;10.47;5.00;;;;;;;;;;10262574;28;20047;-81
2023/12/21 14:28:24;;;;;;;7.73;3.77;;;;;;;;;;10304808;28;20057;-81
2023/12/21 14:33:25;;;;;;;11.33;4.60;;;;;;;;;;10270010;28;20042;-82
2023/12/21 14:38:26;;;;;;;9.90;5.30;;;;;;;;;;10280740;28;20055;-80
2023/12/21 14:43:27;;;;;;;11.00;6.03;;;;;;;;;;10288778;28;20039;-81
2023/12/21 14:48:28;;;;;;;8.23;4.30;;;;;;;;;;10289084;28;20031;-81
2023/12/21 14:53:31;;;;;;;12.20;5.77;;;;;;;;;;10296310;28;20055;-81
2023/12/21 14:58:32;;;;;;;7.13;3.70;;;;;;;;;;10296178;28;20042;-83
2023/12/21 15:03:34;;;;;;;8.60;4.43;;;;;;;;;;10256337;28;20142;-83
2023/12/21 15:08:35;;;;;;;7.90;4.23;;;;;;;;;;10276055;28;20039;-81
2023/12/21 15:13:38;;;;;;;7.63;3.67;;;;;;;;;;10287195;28;20046;-82
2023/12/21 15:18:39;;;;;;;7.20;3.47;;;;;;;;;;10268532;28;20490;-80
2023/12/21 15:23:40;;;;;;;8.73;4.00;;;;;;;;;;10290260;28;20045;-82
2023/12/21 15:28:41;;;;;;;9.17;4.80;;;;;;;;;;10293593;28;20045;-79
2023/12/21 15:33:42;;;;;;;28.17;15.90;;;;;;;;;;10296651;28;20360;-79
2023/12/21 15:38:43;;;;;;;16.37;8.07;;;;;;;;;;10302160;28;20042;-79
2023/12/21 15:43:44;;;;;;;11.13;4.90;;;;;;;;;;10283978;28;20038;-79
2023/12/21 15:48:46;;;;;;;9.27;5.17;;;;;;;;;;10269068;28;20070;-79
2023/12/21 15:53:47;;;;;;;10.37;5.43;;;;;;;;;;10300438;28;20062;-79
2023/12/21 15:58:48;;;;;;;11.97;6.20;;;;;;;;;;10288913;28;20418;-80
2023/12/21 16:03:50;;;;;;;14.77;6.97;;;;;;;;;;10278381;28;20042;-79
2023/12/21 16:08:51;;;;;;;13.87;5.93;;;;;;;;;;10280866;28;20538;-79
2023/12/21 16:13:52;;;;;;;11.63;6.17;;;;;;;;;;10285007;28;20045;-80
2023/12/21 16:18:53;;;;;;;10.90;5.60;;;;;;;;;;10284109;28;20048;-81
2023/12/21 16:23:54;;;;;;;15.93;7.40;;;;;;;;;;10284711;28;20125;-79
2023/12/21 16:28:55;;;;;;;12.60;6.13;;;;;;;;;;10286689;28;20045;-80
2023/12/21 16:33:56;;;;;;;11.10;5.67;;;;;;;;;;10283596;28;20043;-80
2023/12/21 16:39:04;;;;;;;13.47;6.87;;;;;;;;;;10269011;28;20130;-80
2023/12/21 16:44:05;;;;;;;15.23;6.47;;;;;;;;;;10272144;28;20041;-82
2023/12/21 16:49:06;;;;;;;12.67;5.80;;;;;;;;;;10272077;28;20089;-80
2023/12/21 16:54:07;;;;;;;12.03;6.37;;;;;;;;;;10280989;28;20059;-79
2023/12/21 16:59:08;;;;;;;9.97;4.97;;;;;;;;;;10285747;28;20039;-79
2023/12/21 17:04:09;;;;;;;9.27;4.73;;;;;;;;;;10274347;28;20106;-80
2023/12/21 17:09:10;;;;;;;8.73;4.50;;;;;;;;;;10285101;28;20030;-83
2023/12/21 17:14:12;;;;;;;9.73;4.37;;;;;;;;;;10280597;28;20027;-79
2023/12/21 17:19:13;;;;;;;6.47;3.33;;;;;;;;;;10269366;28;20101;-79
2023/12/21 17:24:14;;;;;;;8.00;3.60;;;;;;;;;;10284234;28;20053;-82
2023/12/21 17:29:16;;;;;;;6.67;4.10;;;;;;;;;;10284895;28;20660;-79
2023/12/21 17:34:17;;;;;;;4.93;3.20;;;;;;;;;;10257037;28;20070;-81
2023/12/21 17:39:18;;;;;;;7.17;3.17;;;;;;;;;;10271517;28;20057;-80
2023/12/21 17:44:19;;;;;;;8.57;4.03;;;;;;;;;;10284201;28;20037;-80
2023/12/21 17:49:20;;;;;;;14.87;5.90;;;;;;;;;;10257400;28;20129;-82
2023/12/21 17:54:21;;;;;;;12.03;4.90;;;;;;;;;;10283757;28;20057;-79
2023/12/21 17:59:22;;;;;;;9.23;3.97;;;;;;;;;;10279183;28;20039;-80
2023/12/21 18:04:23;;;;;;;9.73;4.93;;;;;;;;;;10279355;28;20049;-81
2023/12/21 18:09:25;;;;;;;8.37;4.50;;;;;;;;;;10279676;28;20063;-82
2023/12/21 18:14:26;;;;;;;11.13;4.83;;;;;;;;;;10290910;28;20074;-79
2023/12/21 18:19:27;;;;;;;6.03;3.53;;;;;;;;;;10292191;28;20671;-79
2023/12/21 18:24:28;;;;;;;10.10;4.40;;;;;;;;;;10290596;28;20031;-80
2023/12/21 18:29:29;;;;;;;10.17;4.43;;;;;;;;;;10291533;28;20035;-78
2023/12/21 18:34:30;;;;;;;8.73;4.77;;;;;;;;;;10288876;28;20045;-79
2023/12/21 18:39:31;;;;;;;8.40;4.53;;;;;;;;;;10275389;28;20066;-79
2023/12/21 18:44:32;;;;;;;7.53;4.10;;;;;;;;;;10285381;28;20181;-80
2023/12/21 18:49:33;;;;;;;8.73;4.83;;;;;;;;;;10290696;28;20039;-79
2023/12/21 18:54:34;;;;;;;7.77;4.40;;;;;;;;;;10291160;28;20030;-79
2023/12/21 18:59:35;;;;;;;11.17;4.67;;;;;;;;;;10290301;28;20506;-78
2023/12/21 19:04:36;;;;;;;6.57;4.13;;;;;;;;;;10281692;28;20039;-81
2023/12/21 19:09:38;;;;;;;9.90;4.53;;;;;;;;;;10283838;28;20031;-81
2023/12/21 19:14:42;;;;;;;12.43;6.20;;;;;;;;;;10290958;28;20525;-79
2023/12/21 19:19:43;;;;;;;11.93;5.47;;;;;;;;;;10291407;28;20038;-79
2023/12/21 19:24:44;;;;;;;11.40;7.07;;;;;;;;;;10264502;28;20038;-78
2023/12/21 19:29:45;;;;;;;14.47;7.30;;;;;;;;;;10281260;28;20030;-82
2023/12/21 19:34:46;;;;;;;12.63;7.37;;;;;;;;;;10286651;28;20513;-79
2023/12/21 19:39:47;;;;;;;14.13;6.87;;;;;;;;;;10277829;28;20049;-80
2023/12/21 19:44:48;;;;;;;9.97;5.70;;;;;;;;;;10286511;28;20034;-79
2023/12/21 19:49:50;;;;;;;12.87;8.80;;;;;;;;;;10284266;28;20061;-81
2023/12/21 19:54:51;;;;;;;32.70;17.13;;;;;;;;;;10287847;28;20033;-80
2023/12/21 19:59:53;;;;;;;20.23;11.20;;;;;;;;;;10296152;28;20031;-80
2023/12/21 20:04:55;;;;;;;19.63;10.53;;;;;;;;;;10283913;28;20026;-82
2023/12/21 20:10:03;;;;;;;22.63;11.87;;;;;;;;;;10297568;28;20034;-82
2023/12/21 20:15:04;;;;;;;30.97;15.50;;;;;;;;;;10288170;28;20376;-81
2023/12/21 20:20:05;;;;;;;17.63;9.87;;;;;;;;;;10290563;28;20038;-80
2023/12/21 20:25:08;;;;;;;17.30;9.30;;;;;;;;;;10293720;28;20089;-83
2023/12/21 20:30:09;;;;;;;26.53;13.53;;;;;;;;;;10286003;28;20059;-81
2023/12/21 20:35:16;;;;;;;16.63;8.93;;;;;;;;;;10290981;28;20113;-81
2023/12/21 20:40:18;;;;;;;22.77;10.60;;;;;;;;;;10279389;28;20042;-82
2023/12/21 20:45:19;;;;;;;22.30;10.80;;;;;;;;;;10294375;28;20433;-83
2023/12/21 20:50:35;;;;;;;30.07;14.47;;;;;;;;;;10296154;28;20797;-80
2023/12/21 20:55:35;;;;;;;22.40;12.10;;;;;;;;;;10285899;28;20038;-81
2023/12/21 21:00:36;;;;;;;28.20;16.93;;;;;;;;;;10281374;28;20038;-82
2023/12/21 21:05:38;;;;;;;22.30;10.10;;;;;;;;;;10284102;28;20479;-80
2023/12/21 21:10:39;;;;;;;22.10;11.07;;;;;;;;;;10286646;28;20042;-84
2023/12/21 21:15:41;;;;;;;25.23;9.70;;;;;;;;;;10302235;28;20038;-82
2023/12/21 21:20:42;;;;;;;15.67;6.77;;;;;;;;;;10302586;28;20038;-80
2023/12/21 21:25:43;;;;;;;24.00;9.97;;;;;;;;;;10285314;28;20166;-80
2023/12/21 21:30:44;;;;;;;25.83;10.17;;;;;;;;;;10292552;28;20038;-84
2023/12/21 21:35:45;;;;;;;15.93;7.63;;;;;;;;;;10297619;28;20766;-81
2023/12/21 21:40:45;;;;;;;21.43;9.60;;;;;;;;;;10287212;28;20043;-81
2023/12/21 21:45:47;;;;;;;37.27;13.97;;;;;;;;;;10298418;28;20117;-86
2023/12/21 21:50:54;;;;;;;32.70;13.50;;;;;;;;;;10308819;28;20059;-83
2023/12/21 21:55:55;;;;;;;22.87;9.03;;;;;;;;;;10298999;28;20034;-81
2023/12/21 22:00:56;;;;;;;31.63;10.03;;;;;;;;;;10307025;28;20034;-80
2023/12/21 22:05:57;;;;;;;19.30;7.33;;;;;;;;;;10310858;28;20474;-82
2023/12/21 22:10:58;;;;;;;26.30;9.07;;;;;;;;;;10297862;28;20034;-80
2023/12/21 22:15:59;;;;;;;28.43;9.93;;;;;;;;;;10291671;28;20065;-80
2023/12/21 22:21:00;;;;;;;24.80;8.80;;;;;;;;;;10307142;28;20125;-80
2023/12/21 22:26:04;;;;;;;30.57;12.10;;;;;;;;;;10309079;28;20096;-80
2023/12/21 22:31:05;;;;;;;16.63;7.27;;;;;;;;;;10306713;28;20065;-81
2023/12/21 22:36:06;;;;;;;28.33;10.40;;;;;;;;;;10308509;28;20111;-80
2023/12/21 22:41:07;;;;;;;22.53;7.97;;;;;;;;;;10301776;28;20446;-80
2023/12/21 22:46:09;;;;;;;18.83;6.57;;;;;;;;;;10305697;28;20117;-82
2023/12/21 22:51:10;;;;;;;36.53;10.80;;;;;;;;;;10290149;28;20745;-81
2023/12/21 22:56:18;;;;;;;21.97;7.20;;;;;;;;;;10295619;28;20642;-83
2023/12/21 23:01:19;;;;;;;21.27;6.63;;;;;;;;;;10304801;28;20035;-81
2023/12/21 23:06:21;;;;;;;17.50;6.23;;;;;;;;;;10290624;28;20133;-80
2023/12/21 23:11:22;;;;;;;14.43;5.13;;;;;;;;;;10291184;28;20034;-81
2023/12/21 23:16:23;;;;;;;11.07;5.00;;;;;;;;;;10294846;28;20051;-82
2023/12/21 23:21:24;;;;;;;17.00;5.87;;;;;;;;;;10293769;28;20121;-80
2023/12/21 23:26:25;;;;;;;18.90;5.70;;;;;;;;;;10296472;28;20042;-83
2023/12/21 23:31:29;;;;;;;12.23;4.23;;;;;;;;;;10291885;28;20039;-80
2023/12/21 23:36:30;;;;;;;15.60;4.10;;;;;;;;;;10282059;28;20057;-80
2023/12/21 23:41:31;;;;;;;14.13;4.10;;;;;;;;;;10298356;28;20045;-80
2023/12/21 23:46:32;;;;;;;10.60;3.57;;;;;;;;;;10293533;28;20035;-80
2023/12/21 23:51:33;;;;;;;22.60;5.30;;;;;;;;;;10284102;28;20057;-80
2023/12/21 23:56:34;;;;;;;13.03;4.00;;;;;;;;;;10282778;28;20105;-83
